createdAt,value
2018-08-25T00:00:10.334Z,0
2018-08-25T00:01:12.886Z,0
2018-08-25T00:02:15.492Z,0
2018-08-25T00:03:18.294Z,0
2018-08-25T00:04:21.118Z,0
2018-08-25T00:05:24.638Z,0
2018-08-25T00:06:27.359Z,0
2018-08-25T00:07:30.730Z,0
2018-08-25T00:08:34.442Z,0
2018-08-25T00:09:38.097Z,0
2018-08-25T00:10:41.945Z,0
2018-08-25T00:11:44.742Z,0
2018-08-25T00:12:47.155Z,0
2018-08-25T00:13:49.237Z,0
2018-08-25T00:14:51.726Z,0
2018-08-25T00:15:53.822Z,0
2018-08-25T00:16:56.230Z,0
2018-08-25T00:17:58.317Z,0
2018-08-25T00:19:00.425Z,0
2018-08-25T00:20:02.809Z,0
2018-08-25T00:21:04.942Z,0
2018-08-25T00:22:07.048Z,0
2018-08-25T00:23:09.139Z,0
2018-08-25T00:24:11.255Z,0
2018-08-25T00:25:13.346Z,0
2018-08-25T00:26:15.455Z,0
2018-08-25T00:27:17.839Z,0
2018-08-25T00:28:19.935Z,0
2018-08-25T00:29:22.030Z,0
2018-08-25T00:30:24.117Z,0
2018-08-25T00:31:26.219Z,0
2018-08-25T00:32:28.704Z,0
2018-08-25T00:33:30.797Z,0
2018-08-25T00:34:32.895Z,0
2018-08-25T00:35:35.000Z,0
2018-08-25T00:36:37.395Z,0
2018-08-25T00:37:39.534Z,0
2018-08-25T00:38:42.093Z,0
2018-08-25T00:39:44.321Z,0
2018-08-25T00:40:47.035Z,0
2018-08-25T00:41:49.134Z,0
2018-08-25T00:42:51.414Z,0
2018-08-25T00:43:54.012Z,0
2018-08-25T00:44:56.126Z,0
2018-08-25T00:45:58.452Z,0
2018-08-25T00:47:00.906Z,0
2018-08-25T00:48:03.142Z,0
2018-08-25T00:49:05.951Z,0
2018-08-25T00:50:08.119Z,0
2018-08-25T00:51:10.515Z,0
2018-08-25T00:52:12.631Z,0
2018-08-25T00:53:14.836Z,0
2018-08-25T00:54:16.946Z,0
2018-08-25T00:55:19.159Z,0
2018-08-25T00:56:21.800Z,0
2018-08-25T00:57:24.032Z,0
2018-08-25T00:58:26.563Z,0
2018-08-25T00:59:28.992Z,0
2018-08-25T01:00:32.275Z,0
2018-08-25T01:01:34.695Z,0
2018-08-25T01:02:37.201Z,0
2018-08-25T01:03:40.445Z,0
2018-08-25T01:04:42.777Z,0
2018-08-25T01:05:45.644Z,0
2018-08-25T01:06:47.906Z,0
2018-08-25T01:07:50.304Z,0
2018-08-25T01:08:54.416Z,0
2018-08-25T01:09:58.078Z,0
2018-08-25T01:11:01.800Z,0
2018-08-25T01:12:05.960Z,0
2018-08-25T01:13:09.978Z,0
2018-08-25T01:14:13.567Z,0
2018-08-25T01:15:17.349Z,0
2018-08-25T01:16:20.552Z,0
2018-08-25T01:17:24.899Z,0
2018-08-25T01:18:28.283Z,0
2018-08-25T01:19:31.172Z,0
2018-08-25T01:20:33.849Z,0
2018-08-25T01:21:36.075Z,0
2018-08-25T01:22:39.422Z,0
2018-08-25T01:23:42.498Z,0
2018-08-25T01:24:45.055Z,0
2018-08-25T01:25:47.411Z,0
2018-08-25T01:26:49.678Z,0
2018-08-25T01:27:52.334Z,0
2018-08-25T01:28:55.139Z,0
2018-08-25T01:29:57.570Z,0
2018-08-25T01:31:00.071Z,0
2018-08-25T01:32:02.380Z,0
2018-08-25T01:33:04.828Z,0
2018-08-25T01:34:07.074Z,0
2018-08-25T01:35:09.868Z,0
2018-08-25T01:36:12.057Z,0
2018-08-25T01:37:14.425Z,0
2018-08-25T01:38:16.610Z,0
2018-08-25T01:39:18.961Z,0
2018-08-25T01:40:21.574Z,0
2018-08-25T01:41:24.226Z,0
2018-08-25T01:42:26.849Z,0
2018-08-25T01:43:29.492Z,0
2018-08-25T01:44:32.032Z,0
2018-08-25T01:45:34.637Z,0
2018-08-25T01:46:36.921Z,0
2018-08-25T01:47:39.538Z,0
2018-08-25T01:48:41.626Z,0
2018-08-25T01:49:44.026Z,0
2018-08-25T01:50:46.594Z,0
2018-08-25T01:51:48.751Z,0
2018-08-25T01:52:51.122Z,0
2018-08-25T01:53:53.710Z,0
2018-08-25T01:54:56.253Z,0
2018-08-25T01:55:58.717Z,0
2018-08-25T01:57:02.068Z,0
2018-08-25T01:58:04.176Z,0
2018-08-25T01:59:06.444Z,0
2018-08-25T02:00:08.616Z,0
2018-08-25T02:01:11.469Z,0
2018-08-25T02:02:13.947Z,0
2018-08-25T02:03:16.185Z,0
2018-08-25T02:04:18.430Z,0
2018-08-25T02:05:20.620Z,0
2018-08-25T02:06:23.434Z,0
2018-08-25T02:07:26.202Z,0
2018-08-25T02:08:28.875Z,0
2018-08-25T02:09:31.269Z,0
2018-08-25T02:10:33.534Z,0
2018-08-25T02:11:36.105Z,0
2018-08-25T02:12:38.462Z,0
2018-08-25T02:13:40.728Z,0
2018-08-25T02:14:43.002Z,0
2018-08-25T02:15:45.664Z,0
2018-08-25T02:16:48.334Z,0
2018-08-25T02:17:50.853Z,0
2018-08-25T02:18:53.329Z,0
2018-08-25T02:19:55.554Z,0
2018-08-25T02:20:58.222Z,0
2018-08-25T02:22:00.416Z,0
2018-08-25T02:23:02.804Z,0
2018-08-25T02:24:05.241Z,0
2018-08-25T02:25:08.910Z,0
2018-08-25T02:26:11.106Z,0
2018-08-25T02:27:14.081Z,0
2018-08-25T02:28:16.819Z,0
2018-08-25T02:29:18.900Z,0
2018-08-25T02:30:21.926Z,0
2018-08-25T02:31:24.449Z,0
2018-08-25T02:32:27.465Z,0
2018-08-25T02:33:30.933Z,0
2018-08-25T02:34:33.691Z,0
2018-08-25T02:35:36.230Z,0
2018-08-25T02:36:39.115Z,0
2018-08-25T02:37:41.951Z,0
2018-08-25T02:38:46.542Z,0
2018-08-25T02:39:48.822Z,0
2018-08-25T02:40:51.486Z,0
2018-08-25T02:41:54.430Z,0
2018-08-25T02:42:58.312Z,0
2018-08-25T02:44:00.426Z,0
2018-08-25T02:45:02.824Z,0
2018-08-25T02:46:05.529Z,0
2018-08-25T02:47:07.621Z,0
2018-08-25T02:48:10.105Z,0
2018-08-25T02:49:12.591Z,0
2018-08-25T02:50:14.995Z,0
2018-08-25T02:51:17.079Z,0
2018-08-25T02:52:19.472Z,0
2018-08-25T02:53:22.159Z,0
2018-08-25T02:54:24.647Z,0
2018-08-25T02:55:26.733Z,0
2018-08-25T02:56:29.228Z,0
2018-08-25T02:57:31.318Z,0
2018-08-25T02:58:33.417Z,0
2018-08-25T02:59:36.103Z,0
2018-08-25T03:00:38.764Z,0
2018-08-25T03:01:40.866Z,0
2018-08-25T03:02:42.962Z,0
2018-08-25T03:03:45.069Z,0
2018-08-25T03:04:47.160Z,0
2018-08-25T03:05:49.263Z,0
2018-08-25T03:06:51.361Z,0
2018-08-25T03:07:53.450Z,0
2018-08-25T03:08:55.559Z,0
2018-08-25T03:09:57.649Z,0
2018-08-25T03:11:00.137Z,0
2018-08-25T03:12:02.567Z,0
2018-08-25T03:13:04.704Z,0
2018-08-25T03:14:06.802Z,0
2018-08-25T03:15:08.894Z,0
2018-08-25T03:16:11.374Z,0
2018-08-25T03:17:13.482Z,0
2018-08-25T03:18:15.859Z,0
2018-08-25T03:19:17.960Z,0
2018-08-25T03:20:20.071Z,0
2018-08-25T03:21:22.160Z,0
2018-08-25T03:22:24.246Z,0
2018-08-25T03:23:26.346Z,0
2018-08-25T03:24:28.430Z,0
2018-08-25T03:25:31.225Z,0
2018-08-25T03:26:33.334Z,0
2018-08-25T03:27:35.432Z,0
2018-08-25T03:28:37.517Z,0
2018-08-25T03:29:39.939Z,0
2018-08-25T03:30:42.420Z,0
2018-08-25T03:31:45.201Z,0
2018-08-25T03:32:47.618Z,0
2018-08-25T03:33:49.702Z,0
2018-08-25T03:34:51.807Z,0
2018-08-25T03:35:53.913Z,0
2018-08-25T03:36:56.308Z,0
2018-08-25T03:37:58.400Z,0
2018-08-25T03:39:00.891Z,0
2018-08-25T03:40:02.987Z,0
2018-08-25T03:41:05.074Z,0
2018-08-25T03:42:07.185Z,0
2018-08-25T03:43:09.274Z,0
2018-08-25T03:44:11.372Z,0
2018-08-25T03:45:14.536Z,0
2018-08-25T03:46:16.643Z,0
2018-08-25T03:47:18.767Z,0
2018-08-25T03:48:20.870Z,0
2018-08-25T03:49:22.993Z,0
2018-08-25T03:50:25.077Z,0
2018-08-25T03:51:27.184Z,0
2018-08-25T03:52:29.279Z,0
2018-08-25T03:53:31.364Z,0
2018-08-25T03:54:33.751Z,0
2018-08-25T03:55:35.880Z,0
2018-08-25T03:56:38.532Z,0
2018-08-25T03:57:40.639Z,0
2018-08-25T03:58:43.023Z,0
2018-08-25T03:59:45.112Z,0
2018-08-25T04:00:47.216Z,0
2018-08-25T04:01:49.607Z,0
2018-08-25T04:02:51.687Z,0
2018-08-25T04:03:53.788Z,0
2018-08-25T04:04:55.892Z,0
2018-08-25T04:05:58.573Z,0
2018-08-25T04:07:00.684Z,0
2018-08-25T04:08:03.163Z,0
2018-08-25T04:09:05.257Z,0
2018-08-25T04:10:07.346Z,0
2018-08-25T04:11:09.460Z,1
2018-08-25T04:12:12.152Z,1
2018-08-25T04:13:14.252Z,1
2018-08-25T04:14:16.359Z,1
2018-08-25T04:15:18.440Z,1
2018-08-25T04:16:20.539Z,1
2018-08-25T04:17:23.317Z,1
2018-08-25T04:18:25.419Z,1
2018-08-25T04:19:27.496Z,1
2018-08-25T04:20:29.600Z,1
2018-08-25T04:21:31.705Z,2
2018-08-25T04:22:33.796Z,2
2018-08-25T04:23:35.907Z,2
2018-08-25T04:24:37.993Z,2
2018-08-25T04:25:40.095Z,2
2018-08-25T04:26:42.499Z,2
2018-08-25T04:27:44.883Z,3
2018-08-25T04:28:46.972Z,3
2018-08-25T04:29:49.371Z,3
2018-08-25T04:30:51.484Z,3
2018-08-25T04:31:53.585Z,3
2018-08-25T04:32:55.673Z,3
2018-08-25T04:33:58.054Z,4
2018-08-25T04:35:00.152Z,4
2018-08-25T04:36:02.233Z,4
2018-08-25T04:37:04.331Z,4
2018-08-25T04:38:06.821Z,5
2018-08-25T04:39:08.904Z,5
2018-08-25T04:40:11.303Z,5
2018-08-25T04:41:13.479Z,5
2018-08-25T04:42:15.492Z,6
2018-08-25T04:43:17.580Z,6
2018-08-25T04:44:19.692Z,6
2018-08-25T04:45:22.062Z,7
2018-08-25T04:46:24.157Z,7
2018-08-25T04:47:26.648Z,7
2018-08-25T04:48:28.726Z,7
2018-08-25T04:49:30.824Z,8
2018-08-25T04:50:32.920Z,8
2018-08-25T04:51:35.403Z,8
2018-08-25T04:52:37.478Z,8
2018-08-25T04:53:39.577Z,9
2018-08-25T04:54:41.672Z,9
2018-08-25T04:55:43.761Z,9
2018-08-25T04:56:46.152Z,9
2018-08-25T04:57:48.234Z,9
2018-08-25T04:58:50.336Z,9
2018-08-25T04:59:52.436Z,10
2018-08-25T05:00:54.820Z,10
2018-08-25T05:01:57.005Z,10
2018-08-25T05:02:58.998Z,10
2018-08-25T05:04:01.080Z,10
2018-08-25T05:05:03.570Z,10
2018-08-25T05:06:05.673Z,10
2018-08-25T05:07:08.373Z,10
2018-08-25T05:08:10.472Z,11
2018-08-25T05:09:12.947Z,11
2018-08-25T05:10:15.041Z,11
2018-08-25T05:11:17.145Z,11
2018-08-25T05:12:19.223Z,12
2018-08-25T05:13:21.324Z,12
2018-08-25T05:14:23.708Z,13
2018-08-25T05:15:26.111Z,13
2018-08-25T05:16:28.201Z,13
2018-08-25T05:17:30.700Z,14
2018-08-25T05:18:32.785Z,14
2018-08-25T05:19:34.876Z,14
2018-08-25T05:20:37.713Z,14
2018-08-25T05:21:40.080Z,14
2018-08-25T05:22:42.476Z,14
2018-08-25T05:23:44.859Z,14
2018-08-25T05:24:46.952Z,14
2018-08-25T05:25:49.034Z,14
2018-08-25T05:26:51.442Z,14
2018-08-25T05:27:53.919Z,14
2018-08-25T05:28:56.006Z,14
2018-08-25T05:29:58.111Z,14
2018-08-25T05:31:00.194Z,15
2018-08-25T05:32:02.583Z,16
2018-08-25T05:33:04.693Z,16
2018-08-25T05:34:06.779Z,16
2018-08-25T05:35:08.864Z,17
2018-08-25T05:36:10.962Z,18
2018-08-25T05:37:13.051Z,18
2018-08-25T05:38:15.149Z,19
2018-08-25T05:39:17.252Z,20
2018-08-25T05:40:19.638Z,21
2018-08-25T05:41:22.019Z,22
2018-08-25T05:42:24.128Z,24
2018-08-25T05:43:26.508Z,25
2018-08-25T05:44:28.887Z,26
2018-08-25T05:45:30.978Z,28
2018-08-25T05:46:33.084Z,31
2018-08-25T05:47:35.509Z,33
2018-08-25T05:48:37.895Z,35
2018-08-25T05:49:39.978Z,38
2018-08-25T05:50:42.087Z,39
2018-08-25T05:51:44.465Z,40
2018-08-25T05:52:46.559Z,40
2018-08-25T05:53:48.659Z,43
2018-08-25T05:54:51.126Z,44
2018-08-25T05:55:53.234Z,44
2018-08-25T05:56:55.333Z,44
2018-08-25T05:57:57.714Z,44
2018-08-25T05:58:59.796Z,44
2018-08-25T06:00:02.965Z,43
2018-08-25T06:01:05.056Z,44
2018-08-25T06:02:07.153Z,44
2018-08-25T06:03:09.256Z,43
2018-08-25T06:04:11.340Z,44
2018-08-25T06:05:13.432Z,42
2018-08-25T06:06:15.533Z,41
2018-08-25T06:07:18.314Z,42
2018-08-25T06:08:20.403Z,42
2018-08-25T06:09:22.788Z,43
2018-08-25T06:10:24.875Z,42
2018-08-25T06:11:26.968Z,43
2018-08-25T06:12:29.073Z,44
2018-08-25T06:13:32.073Z,44
2018-08-25T06:14:34.467Z,45
2018-08-25T06:15:37.257Z,46
2018-08-25T06:16:39.350Z,47
2018-08-25T06:17:41.884Z,47
2018-08-25T06:18:43.942Z,47
2018-08-25T06:19:46.023Z,48
2018-08-25T06:20:48.124Z,47
2018-08-25T06:21:50.519Z,47
2018-08-25T06:22:52.624Z,46
2018-08-25T06:23:55.100Z,44
2018-08-25T06:24:57.202Z,41
2018-08-25T06:25:59.301Z,40
2018-08-25T06:27:01.388Z,42
2018-08-25T06:28:03.795Z,43
2018-08-25T06:29:06.179Z,43
2018-08-25T06:30:09.071Z,44
2018-08-25T06:31:11.105Z,44
2018-08-25T06:32:13.219Z,45
2018-08-25T06:33:15.305Z,46
2018-08-25T06:34:17.408Z,44
2018-08-25T06:35:19.791Z,44
2018-08-25T06:36:22.551Z,45
2018-08-25T06:37:25.035Z,48
2018-08-25T06:38:27.131Z,52
2018-08-25T06:39:29.217Z,53
2018-08-25T06:40:31.313Z,53
2018-08-25T06:41:33.419Z,51
2018-08-25T06:42:35.563Z,50
2018-08-25T06:43:37.644Z,48
2018-08-25T06:44:40.130Z,47
2018-08-25T06:45:42.218Z,47
2018-08-25T06:46:44.311Z,51
2018-08-25T06:47:46.417Z,52
2018-08-25T06:48:48.502Z,51
2018-08-25T06:49:50.602Z,52
2018-08-25T06:50:52.703Z,54
2018-08-25T06:51:54.787Z,57
2018-08-25T06:52:56.898Z,57
2018-08-25T06:53:58.996Z,59
2018-08-25T06:55:01.095Z,59
2018-08-25T06:56:03.183Z,62
2018-08-25T06:57:05.287Z,63
2018-08-25T06:58:07.675Z,60
2018-08-25T06:59:09.773Z,57
2018-08-25T07:00:11.888Z,56
2018-08-25T07:01:14.292Z,58
2018-08-25T07:02:16.672Z,62
2018-08-25T07:03:18.772Z,63
2018-08-25T07:04:20.865Z,63
2018-08-25T07:05:23.270Z,61
2018-08-25T07:06:25.742Z,60
2018-08-25T07:07:27.843Z,60
2018-08-25T07:08:29.947Z,61
2018-08-25T07:09:32.030Z,59
2018-08-25T07:10:34.134Z,60
2018-08-25T07:11:36.238Z,61
2018-08-25T07:12:38.326Z,58
2018-08-25T07:13:40.720Z,54
2018-08-25T07:14:42.822Z,51
2018-08-25T07:15:44.913Z,51
2018-08-25T07:16:47.020Z,52
2018-08-25T07:17:49.118Z,54
2018-08-25T07:18:51.551Z,54
2018-08-25T07:19:53.938Z,55
2018-08-25T07:20:56.046Z,58
2018-08-25T07:21:58.137Z,59
2018-08-25T07:23:00.530Z,63
2018-08-25T07:24:02.634Z,66
2018-08-25T07:25:04.719Z,66
2018-08-25T07:26:06.890Z,68
2018-08-25T07:27:08.935Z,67
2018-08-25T07:28:11.038Z,67
2018-08-25T07:29:13.135Z,69
2018-08-25T07:30:15.259Z,71
2018-08-25T07:31:17.662Z,71
2018-08-25T07:32:19.764Z,70
2018-08-25T07:33:21.873Z,69
2018-08-25T07:34:24.549Z,66
2018-08-25T07:35:26.655Z,62
2018-08-25T07:36:28.753Z,58
2018-08-25T07:37:30.858Z,57
2018-08-25T07:38:32.944Z,57
2018-08-25T07:39:35.051Z,51
2018-08-25T07:40:37.150Z,44
2018-08-25T07:41:39.252Z,38
2018-08-25T07:42:41.335Z,34
2018-08-25T07:43:43.442Z,31
2018-08-25T07:44:45.557Z,33
2018-08-25T07:45:47.942Z,41
2018-08-25T07:46:50.332Z,43
2018-08-25T07:47:52.443Z,40
2018-08-25T07:48:54.539Z,37
2018-08-25T07:49:56.941Z,36
2018-08-25T07:50:59.096Z,36
2018-08-25T07:52:01.137Z,36
2018-08-25T07:53:03.228Z,37
2018-08-25T07:54:05.333Z,40
2018-08-25T07:55:07.418Z,42
2018-08-25T07:56:09.519Z,42
2018-08-25T07:57:11.617Z,42
2018-08-25T07:58:13.708Z,44
2018-08-25T07:59:16.737Z,45
2018-08-25T08:00:18.739Z,44
2018-08-25T08:01:21.219Z,41
2018-08-25T08:02:23.312Z,39
2018-08-25T08:03:25.418Z,37
2018-08-25T08:04:27.508Z,39
2018-08-25T08:05:29.632Z,42
2018-08-25T08:06:31.712Z,45
2018-08-25T08:07:33.797Z,50
2018-08-25T08:08:35.903Z,54
2018-08-25T08:09:38.396Z,61
2018-08-25T08:10:40.497Z,71
2018-08-25T08:11:42.592Z,81
2018-08-25T08:12:44.979Z,88
2018-08-25T08:13:47.074Z,96
2018-08-25T08:14:49.172Z,106
2018-08-25T08:15:51.575Z,110
2018-08-25T08:16:53.675Z,201
2018-08-25T08:17:55.776Z,234
2018-08-25T08:18:57.873Z,99
2018-08-25T08:19:59.980Z,235
2018-08-25T08:21:02.374Z,298
2018-08-25T08:22:04.478Z,253
2018-08-25T08:23:06.906Z,173
2018-08-25T08:24:09.010Z,243
2018-08-25T08:25:11.401Z,283
2018-08-25T08:26:13.502Z,241
2018-08-25T08:27:15.614Z,173
2018-08-25T08:28:17.707Z,105
2018-08-25T08:29:19.816Z,122
2018-08-25T08:30:21.920Z,130
2018-08-25T08:31:24.024Z,141
2018-08-25T08:32:26.536Z,150
2018-08-25T08:33:28.949Z,121
2018-08-25T08:34:31.055Z,98
2018-08-25T08:35:33.454Z,79
2018-08-25T08:36:35.567Z,69
2018-08-25T08:37:37.660Z,67
2018-08-25T08:38:39.761Z,64
2018-08-25T08:39:42.394Z,59
2018-08-25T08:40:44.486Z,61
2018-08-25T08:41:46.594Z,64
2018-08-25T08:42:49.376Z,69
2018-08-25T08:43:51.486Z,65
2018-08-25T08:44:53.648Z,67
2018-08-25T08:45:55.763Z,67
2018-08-25T08:46:57.864Z,71
2018-08-25T08:47:59.964Z,80
2018-08-25T08:49:02.083Z,84
2018-08-25T08:50:04.273Z,79
2018-08-25T08:51:07.838Z,77
2018-08-25T08:52:09.951Z,68
2018-08-25T08:53:12.051Z,53
2018-08-25T08:54:14.150Z,39
2018-08-25T08:55:16.257Z,31
2018-08-25T08:56:18.348Z,29
2018-08-25T08:57:20.837Z,31
2018-08-25T08:58:22.967Z,33
2018-08-25T08:59:25.347Z,38
2018-08-25T09:00:27.758Z,45
2018-08-25T09:01:29.878Z,48
2018-08-25T09:02:31.979Z,49
2018-08-25T09:03:34.077Z,54
2018-08-25T09:04:36.263Z,64
2018-08-25T09:05:38.643Z,70
2018-08-25T09:06:40.753Z,73
2018-08-25T09:07:43.438Z,83
2018-08-25T09:08:45.550Z,77
2018-08-25T09:09:47.639Z,79
2018-08-25T09:10:49.744Z,86
2018-08-25T09:11:52.344Z,113
2018-08-25T09:12:54.368Z,135
2018-08-25T09:13:56.480Z,118
2018-08-25T09:14:58.571Z,108
2018-08-25T09:16:00.682Z,105
2018-08-25T09:17:02.784Z,114
2018-08-25T09:18:04.905Z,121
2018-08-25T09:19:07.311Z,137
2018-08-25T09:20:09.411Z,129
2018-08-25T09:21:11.514Z,114
2018-08-25T09:22:13.600Z,104
2018-08-25T09:23:15.705Z,99
2018-08-25T09:24:17.806Z,101
2018-08-25T09:25:19.894Z,115
2018-08-25T09:26:21.993Z,119
2018-08-25T09:27:24.606Z,109
2018-08-25T09:28:26.914Z,85
2018-08-25T09:29:29.029Z,75
2018-08-25T09:30:31.466Z,66
2018-08-25T09:31:33.558Z,63
2018-08-25T09:32:35.663Z,65
2018-08-25T09:33:37.754Z,73
2018-08-25T09:34:39.870Z,80
2018-08-25T09:35:41.997Z,80
2018-08-25T09:36:44.767Z,87
2018-08-25T09:37:46.747Z,87
2018-08-25T09:38:49.441Z,84
2018-08-25T09:39:51.938Z,83
2018-08-25T09:40:54.343Z,91
2018-08-25T09:41:56.455Z,124
2018-08-25T09:42:58.539Z,170
2018-08-25T09:44:00.650Z,141
2018-08-25T09:45:03.456Z,106
2018-08-25T09:46:05.548Z,130
2018-08-25T09:47:07.749Z,90
2018-08-25T09:48:09.759Z,77
2018-08-25T09:49:11.857Z,66
2018-08-25T09:50:14.240Z,63
2018-08-25T09:51:16.363Z,63
2018-08-25T09:52:18.748Z,65
2018-08-25T09:53:21.299Z,66
2018-08-25T09:54:23.347Z,74
2018-08-25T09:55:25.434Z,83
2018-08-25T09:56:27.543Z,96
2018-08-25T09:57:29.646Z,106
2018-08-25T09:58:32.125Z,113
2018-08-25T09:59:34.534Z,122
2018-08-25T10:00:36.643Z,148
2018-08-25T10:01:38.739Z,157
2018-08-25T10:02:40.848Z,175
2018-08-25T10:03:42.946Z,146
2018-08-25T10:04:45.036Z,129
2018-08-25T10:05:47.137Z,102
2018-08-25T10:06:49.549Z,77
2018-08-25T10:07:51.639Z,62
2018-08-25T10:08:54.145Z,57
2018-08-25T10:09:56.245Z,56
2018-08-25T10:10:58.909Z,52
2018-08-25T10:12:01.015Z,43
2018-08-25T10:13:03.421Z,35
2018-08-25T10:14:06.079Z,31
2018-08-25T10:15:08.576Z,31
2018-08-25T10:16:11.170Z,29
2018-08-25T10:17:13.270Z,26
2018-08-25T10:18:15.371Z,22
2018-08-25T10:19:17.828Z,18
2018-08-25T10:20:19.914Z,16
2018-08-25T10:21:22.028Z,13
2018-08-25T10:22:25.194Z,11
2018-08-25T10:23:27.745Z,10
2018-08-25T10:24:30.146Z,9
2018-08-25T10:25:32.345Z,9
2018-08-25T10:26:35.146Z,10
2018-08-25T10:27:37.242Z,12
2018-08-25T10:28:39.650Z,16
2018-08-25T10:29:42.038Z,18
2018-08-25T10:30:44.444Z,17
2018-08-25T10:31:46.862Z,15
2018-08-25T10:32:48.965Z,13
2018-08-25T10:33:52.051Z,10
2018-08-25T10:34:54.544Z,9
2018-08-25T10:35:56.636Z,9
2018-08-25T10:36:58.743Z,11
2018-08-25T10:38:00.849Z,14
2018-08-25T10:39:02.947Z,17
2018-08-25T10:40:05.431Z,19
2018-08-25T10:41:07.544Z,22
2018-08-25T10:42:09.720Z,26
2018-08-25T10:43:12.022Z,31
2018-08-25T10:44:14.130Z,34
2018-08-25T10:45:16.215Z,37
2018-08-25T10:46:18.314Z,37
2018-08-25T10:47:20.755Z,39
2018-08-25T10:48:23.153Z,41
2018-08-25T10:49:25.252Z,47
2018-08-25T10:50:27.633Z,58
2018-08-25T10:51:29.735Z,67
2018-08-25T10:52:31.843Z,73
2018-08-25T10:53:33.939Z,72
2018-08-25T10:54:36.048Z,68
2018-08-25T10:55:38.432Z,66
2018-08-25T10:56:40.534Z,63
2018-08-25T10:57:43.574Z,62
2018-08-25T10:58:45.737Z,61
2018-08-25T10:59:47.838Z,62
2018-08-25T11:00:51.551Z,63
2018-08-25T11:01:53.539Z,66
2018-08-25T11:02:55.633Z,65
2018-08-25T11:03:58.132Z,65
2018-08-25T11:05:00.250Z,70
2018-08-25T11:06:02.363Z,82
2018-08-25T11:07:04.479Z,108
2018-08-25T11:08:06.582Z,158
2018-08-25T11:09:08.672Z,295
2018-08-25T11:10:10.769Z,440
2018-08-25T11:11:12.879Z,505
2018-08-25T11:12:15.369Z,332
2018-08-25T11:13:17.486Z,353
2018-08-25T11:14:20.192Z,388
2018-08-25T11:15:22.685Z,389
2018-08-25T11:16:24.814Z,412
2018-08-25T11:17:26.896Z,243
2018-08-25T11:18:29.286Z,255
2018-08-25T11:19:31.390Z,301
2018-08-25T11:20:33.777Z,161
2018-08-25T11:21:36.177Z,124
2018-08-25T11:22:38.262Z,122
2018-08-25T11:23:40.451Z,174
2018-08-25T11:24:43.214Z,289
2018-08-25T11:25:45.311Z,225
2018-08-25T11:26:47.427Z,157
2018-08-25T11:27:49.522Z,145
2018-08-25T11:28:51.627Z,139
2018-08-25T11:29:54.408Z,130
2018-08-25T11:30:56.525Z,176
2018-08-25T11:31:58.616Z,109
2018-08-25T11:33:00.715Z,110
2018-08-25T11:34:02.820Z,162
2018-08-25T11:35:05.301Z,114
2018-08-25T11:36:07.410Z,187
2018-08-25T11:37:09.520Z,123
2018-08-25T11:38:12.164Z,200
2018-08-25T11:39:14.158Z,434
2018-08-25T11:40:16.576Z,229
2018-08-25T11:41:18.672Z,168
2018-08-25T11:42:21.070Z,278
2018-08-25T11:43:23.173Z,196
2018-08-25T11:44:25.270Z,170
2018-08-25T11:45:27.715Z,216
2018-08-25T11:46:29.827Z,449
2018-08-25T11:47:31.912Z,216
2018-08-25T11:48:34.015Z,238
2018-08-25T11:49:36.122Z,237
2018-08-25T11:50:38.213Z,370
2018-08-25T11:51:40.333Z,254
2018-08-25T11:52:42.430Z,447
2018-08-25T11:53:44.924Z,501
2018-08-25T11:54:47.020Z,479
2018-08-25T11:55:49.136Z,463
2018-08-25T11:56:51.234Z,465
2018-08-25T11:57:53.623Z,370
2018-08-25T11:58:55.734Z,398
2018-08-25T11:59:57.825Z,213
2018-08-25T12:00:59.939Z,178
2018-08-25T12:02:02.488Z,224
2018-08-25T12:03:05.746Z,200
2018-08-25T12:04:07.836Z,93
2018-08-25T12:05:09.949Z,71
2018-08-25T12:06:12.059Z,73
2018-08-25T12:07:14.170Z,70
2018-08-25T12:08:16.962Z,67
2018-08-25T12:09:19.527Z,63
2018-08-25T12:10:21.592Z,61
2018-08-25T12:11:23.685Z,56
2018-08-25T12:12:25.784Z,52
2018-08-25T12:13:27.896Z,53
2018-08-25T12:14:29.994Z,55
2018-08-25T12:15:32.438Z,57
2018-08-25T12:16:34.513Z,54
2018-08-25T12:17:36.611Z,52
2018-08-25T12:18:38.711Z,51
2018-08-25T12:19:40.824Z,51
2018-08-25T12:20:42.914Z,52
2018-08-25T12:21:45.019Z,56
2018-08-25T12:22:47.126Z,63
2018-08-25T12:23:49.218Z,70
2018-08-25T12:24:51.731Z,67
2018-08-25T12:25:54.544Z,78
2018-08-25T12:26:56.611Z,76
2018-08-25T12:27:58.704Z,85
2018-08-25T12:29:00.817Z,108
2018-08-25T12:30:03.672Z,130
2018-08-25T12:31:05.770Z,224
2018-08-25T12:32:07.877Z,142
2018-08-25T12:33:09.965Z,189
2018-08-25T12:34:12.464Z,126
2018-08-25T12:35:14.852Z,90
2018-08-25T12:36:16.953Z,86
2018-08-25T12:37:19.042Z,87
2018-08-25T12:38:21.444Z,94
2018-08-25T12:39:23.884Z,100
2018-08-25T12:40:25.927Z,122
2018-08-25T12:41:28.041Z,188
2018-08-25T12:42:30.140Z,355
2018-08-25T12:43:34.033Z,401
2018-08-25T12:44:36.056Z,188
2018-08-25T12:45:38.152Z,308
2018-08-25T12:46:40.257Z,237
2018-08-25T12:47:42.352Z,466
2018-08-25T12:48:44.497Z,324
2018-08-25T12:49:46.563Z,207
2018-08-25T12:50:49.041Z,394
2018-08-25T12:51:51.148Z,343
2018-08-25T12:52:53.258Z,288
2018-08-25T12:53:55.341Z,227
2018-08-25T12:54:57.446Z,106
2018-08-25T12:55:59.550Z,99
2018-08-25T12:57:01.641Z,89
2018-08-25T12:58:03.778Z,76
2018-08-25T12:59:06.318Z,71
2018-08-25T13:00:08.743Z,67
2018-08-25T13:01:11.226Z,66
2018-08-25T13:02:13.347Z,64
2018-08-25T13:03:15.442Z,63
2018-08-25T13:04:17.837Z,61
2018-08-25T13:05:19.948Z,58
2018-08-25T13:06:22.036Z,57
2018-08-25T13:07:24.217Z,51
2018-08-25T13:08:26.685Z,43
2018-08-25T13:09:28.790Z,39
2018-08-25T13:10:31.265Z,37
2018-08-25T13:11:33.375Z,37
2018-08-25T13:12:35.475Z,34
2018-08-25T13:13:37.571Z,25
2018-08-25T13:14:40.568Z,14
2018-08-25T13:15:42.610Z,9
2018-08-25T13:16:44.708Z,8
2018-08-25T13:17:46.818Z,10
2018-08-25T13:18:48.960Z,9
2018-08-25T13:19:51.005Z,9
2018-08-25T13:20:53.106Z,11
2018-08-25T13:21:55.343Z,16
2018-08-25T13:22:57.310Z,27
2018-08-25T13:23:59.404Z,50
2018-08-25T13:25:01.618Z,81
2018-08-25T13:26:03.609Z,115
2018-08-25T13:27:05.982Z,112
2018-08-25T13:28:08.090Z,127
2018-08-25T13:29:10.191Z,132
2018-08-25T13:30:12.979Z,285
2018-08-25T13:31:15.206Z,198
2018-08-25T13:32:17.481Z,135
2018-08-25T13:33:19.582Z,118
2018-08-25T13:34:21.679Z,143
2018-08-25T13:35:23.792Z,233
2018-08-25T13:36:26.180Z,150
2018-08-25T13:37:28.277Z,139
2018-08-25T13:38:30.384Z,192
2018-08-25T13:39:32.855Z,219
2018-08-25T13:40:35.255Z,272
2018-08-25T13:41:37.366Z,253
2018-08-25T13:42:40.068Z,155
2018-08-25T13:43:42.165Z,263
2018-08-25T13:44:44.268Z,171
2018-08-25T13:45:46.367Z,226
2018-08-25T13:46:48.463Z,304
2018-08-25T13:47:50.578Z,83
2018-08-25T13:48:53.055Z,294
2018-08-25T13:49:55.449Z,159
2018-08-25T13:50:57.961Z,283
2018-08-25T13:52:00.286Z,277
2018-08-25T13:53:02.385Z,300
2018-08-25T13:54:04.495Z,125
2018-08-25T13:55:06.590Z,302
2018-08-25T13:56:08.691Z,310
2018-08-25T13:57:10.806Z,82
2018-08-25T13:58:12.920Z,79
2018-08-25T13:59:15.003Z,81
2018-08-25T14:00:17.118Z,109
2018-08-25T14:01:19.218Z,96
2018-08-25T14:02:21.624Z,111
2018-08-25T14:03:23.736Z,206
2018-08-25T14:04:25.827Z,113
2018-08-25T14:05:28.235Z,101
2018-08-25T14:06:30.341Z,75
2018-08-25T14:07:32.452Z,70
2018-08-25T14:08:34.841Z,68
2018-08-25T14:09:37.247Z,51
2018-08-25T14:10:39.344Z,43
2018-08-25T14:11:41.439Z,51
2018-08-25T14:12:43.557Z,44
2018-08-25T14:13:45.652Z,34
2018-08-25T14:14:47.756Z,26
2018-08-25T14:15:49.891Z,21
2018-08-25T14:16:51.969Z,18
2018-08-25T14:17:54.375Z,12
2018-08-25T14:18:56.771Z,8
2018-08-25T14:19:58.880Z,7
2018-08-25T14:21:00.968Z,8
2018-08-25T14:22:03.076Z,10
2018-08-25T14:23:05.190Z,14
2018-08-25T14:24:07.872Z,15
2018-08-25T14:25:09.974Z,16
2018-08-25T14:26:12.083Z,20
2018-08-25T14:27:14.182Z,28
2018-08-25T14:28:16.294Z,35
2018-08-25T14:29:18.393Z,39
2018-08-25T14:30:20.875Z,37
2018-08-25T14:31:22.971Z,34
2018-08-25T14:32:25.365Z,31
2018-08-25T14:33:27.451Z,32
2018-08-25T14:34:29.565Z,35
2018-08-25T14:35:31.669Z,37
2018-08-25T14:36:34.157Z,39
2018-08-25T14:37:36.239Z,46
2018-08-25T14:38:38.631Z,55
2018-08-25T14:39:41.024Z,57
2018-08-25T14:40:43.425Z,51
2018-08-25T14:41:46.078Z,47
2018-08-25T14:42:48.503Z,42
2018-08-25T14:43:50.598Z,36
2018-08-25T14:44:52.689Z,32
2018-08-25T14:45:55.096Z,33
2018-08-25T14:46:57.593Z,37
2018-08-25T14:47:59.723Z,40
2018-08-25T14:49:02.221Z,46
2018-08-25T14:50:04.408Z,57
2018-08-25T14:51:06.516Z,73
2018-08-25T14:52:08.613Z,215
2018-08-25T14:53:10.724Z,169